createdAt,value
2019-04-03T00:00:10.474Z,7.17
2019-04-03T00:02:39.397Z,6.73
2019-04-03T00:05:08.504Z,6.47
2019-04-03T00:07:37.504Z,6.70
2019-04-03T00:10:07.514Z,5.67
2019-04-03T00:12:37.303Z,6.27
2019-04-03T00:15:06.749Z,5.90
2019-04-03T00:17:35.763Z,6.50
2019-04-03T00:20:07.071Z,5.53
2019-04-03T00:22:37.988Z,6.00
2019-04-03T00:25:07.839Z,5.93
2019-04-03T00:27:36.897Z,5.53
2019-04-03T00:30:07.094Z,5.10
2019-04-03T00:32:36.675Z,5.40
2019-04-03T00:35:07.362Z,4.90
2019-04-03T00:37:36.302Z,4.73
2019-04-03T00:40:08.379Z,5.17
2019-04-03T00:42:37.382Z,4.53
2019-04-03T00:45:07.489Z,4.73
2019-04-03T00:47:36.689Z,4.30
2019-04-03T00:50:07.754Z,4.40
2019-04-03T00:52:36.758Z,4.50
2019-04-03T00:55:06.666Z,4.20
2019-04-03T00:57:35.669Z,4.40
2019-04-03T01:00:16.270Z,4.90
2019-04-03T01:02:45.193Z,4.47
2019-04-03T01:05:14.204Z,5.27
2019-04-03T01:07:43.142Z,4.80
2019-04-03T01:10:12.241Z,5.10
2019-04-03T01:12:41.243Z,5.07
2019-04-03T01:15:10.673Z,5.17
2019-04-03T01:17:39.826Z,5.53
2019-04-03T01:20:09.295Z,5.50
2019-04-03T01:22:38.376Z,5.40
2019-04-03T01:25:08.836Z,5.33
2019-04-03T01:27:41.216Z,5.40
2019-04-03T01:30:09.477Z,5.80
2019-04-03T01:32:38.415Z,5.80
2019-04-03T01:35:09.151Z,5.77
2019-04-03T01:37:38.135Z,5.97
2019-04-03T01:40:08.253Z,5.43
2019-04-03T01:42:37.273Z,5.47
2019-04-03T01:45:06.373Z,5.60
2019-04-03T01:47:35.411Z,5.80
2019-04-03T01:50:06.260Z,5.80
2019-04-03T01:52:35.224Z,5.83
2019-04-03T01:55:05.399Z,6.13
2019-04-03T01:57:36.250Z,6.17
2019-04-03T02:00:08.841Z,6.07
2019-04-03T02:02:38.790Z,5.77
2019-04-03T02:05:08.867Z,6.10
2019-04-03T02:07:38.013Z,6.47
2019-04-03T02:10:18.823Z,5.87
2019-04-03T02:12:50.624Z,5.47
2019-04-03T02:15:21.173Z,5.60
2019-04-03T02:17:49.317Z,6.37
2019-04-03T02:20:19.078Z,5.90
2019-04-03T02:22:48.055Z,5.47
2019-04-03T02:25:16.987Z,5.83
2019-04-03T02:27:45.943Z,5.90
2019-04-03T02:30:16.098Z,6.00
2019-04-03T02:32:45.076Z,6.13
2019-04-03T02:35:14.067Z,6.87
2019-04-03T02:37:43.137Z,6.30
2019-04-03T02:40:12.379Z,6.50
2019-04-03T02:42:42.134Z,6.97
2019-04-03T02:45:13.676Z,6.90
2019-04-03T02:47:42.695Z,7.43
2019-04-03T02:50:14.411Z,6.50
2019-04-03T02:52:42.437Z,6.97
2019-04-03T02:55:11.481Z,7.53
2019-04-03T02:57:40.400Z,7.20
2019-04-03T03:00:09.979Z,6.67
2019-04-03T03:02:39.000Z,6.50
2019-04-03T03:05:08.274Z,6.23
2019-04-03T03:07:37.773Z,7.20
2019-04-03T03:10:08.350Z,6.97
2019-04-03T03:12:38.993Z,6.77
2019-04-03T03:15:11.145Z,6.60
2019-04-03T03:17:39.589Z,6.90
2019-04-03T03:20:09.150Z,6.83
2019-04-03T03:22:40.015Z,7.47
2019-04-03T03:25:09.560Z,6.23
2019-04-03T03:27:41.889Z,6.13
2019-04-03T03:30:30.919Z,5.93
2019-04-03T03:32:40.986Z,5.47
2019-04-03T03:35:15.066Z,6.30
2019-04-03T03:37:41.134Z,6.00
2019-04-03T03:40:10.398Z,6.00
2019-04-03T03:42:39.562Z,5.90
2019-04-03T03:45:09.070Z,5.73
2019-04-03T03:47:38.960Z,6.03
2019-04-03T03:50:08.774Z,5.50
2019-04-03T03:52:39.152Z,5.97
2019-04-03T03:55:08.772Z,5.67
2019-04-03T03:57:40.276Z,5.37
2019-04-03T04:00:10.228Z,6.20
2019-04-03T04:02:43.091Z,5.10
2019-04-03T04:05:11.897Z,5.40
2019-04-03T04:07:41.243Z,5.63
2019-04-03T04:10:10.885Z,5.67
2019-04-03T04:12:41.842Z,5.73
2019-04-03T04:15:11.139Z,6.37
2019-04-03T04:17:40.393Z,5.47
2019-04-03T04:20:09.710Z,6.00
2019-04-03T04:22:39.693Z,6.17
2019-04-03T04:25:08.943Z,7.07
2019-04-03T04:27:39.391Z,6.50
2019-04-03T04:30:08.796Z,6.73
2019-04-03T04:32:37.858Z,6.60
2019-04-03T04:35:10.151Z,6.10
2019-04-03T04:37:40.162Z,6.93
2019-04-03T04:40:08.972Z,6.63
2019-04-03T04:42:37.965Z,6.50
2019-04-03T04:45:07.223Z,6.97
2019-04-03T04:47:36.197Z,7.10
2019-04-03T04:50:06.061Z,7.77
2019-04-03T04:52:35.023Z,8.97
2019-04-03T04:55:04.397Z,8.93
2019-04-03T04:57:33.353Z,16.13
2019-04-03T05:00:03.176Z,9.33
2019-04-03T05:02:32.259Z,8.00
2019-04-03T05:05:01.267Z,8.20
2019-04-03T05:07:30.791Z,7.67
2019-04-03T05:10:00.427Z,8.13
2019-04-03T05:12:29.671Z,8.20
2019-04-03T05:14:58.767Z,7.77
2019-04-03T05:17:27.726Z,7.93
2019-04-03T05:19:56.683Z,8.47
2019-04-03T05:22:25.682Z,8.17
2019-04-03T05:24:54.652Z,8.97
2019-04-03T05:27:23.582Z,8.97
2019-04-03T05:29:52.614Z,9.00
2019-04-03T05:32:21.583Z,9.37
2019-04-03T05:34:50.544Z,8.73
2019-04-03T05:37:20.179Z,8.37
2019-04-03T05:39:50.300Z,8.97
2019-04-03T05:42:19.292Z,7.93
2019-04-03T05:44:48.453Z,9.33
2019-04-03T05:47:17.369Z,10.70
2019-04-03T05:49:47.148Z,10.80
2019-04-03T05:52:16.407Z,11.43
2019-04-03T05:54:45.545Z,11.43
2019-04-03T05:57:14.643Z,11.73
2019-04-03T05:59:44.555Z,12.47
2019-04-03T06:02:16.816Z,11.20
2019-04-03T06:04:44.368Z,11.57
2019-04-03T06:07:13.561Z,11.33
2019-04-03T06:09:43.158Z,11.93
2019-04-03T06:12:14.166Z,11.87
2019-04-03T06:14:42.896Z,12.60
2019-04-03T06:17:11.866Z,12.50
2019-04-03T06:19:40.900Z,12.37
2019-04-03T06:22:10.721Z,12.70
2019-04-03T06:24:39.755Z,13.33
2019-04-03T06:27:10.000Z,13.93
2019-04-03T06:29:39.629Z,13.90
2019-04-03T06:32:09.187Z,13.60
2019-04-03T06:34:40.477Z,15.33
2019-04-03T06:37:09.137Z,14.63
2019-04-03T06:39:38.848Z,16.00
2019-04-03T06:42:07.902Z,15.37
2019-04-03T06:44:36.918Z,16.70
2019-04-03T06:47:05.990Z,16.03
2019-04-03T06:49:35.004Z,16.17
2019-04-03T06:52:04.463Z,16.80
2019-04-03T06:54:33.417Z,16.67
2019-04-03T06:57:02.381Z,16.33
2019-04-03T06:59:31.680Z,17.33
2019-04-03T07:02:00.894Z,17.83
2019-04-03T07:04:29.834Z,15.73
2019-04-03T07:06:58.814Z,16.63
2019-04-03T07:09:34.878Z,16.87
2019-04-03T07:11:58.449Z,17.13
2019-04-03T07:14:27.458Z,16.97
2019-04-03T07:16:56.615Z,18.73
2019-04-03T07:19:25.669Z,20.37
2019-04-03T07:21:55.850Z,19.60
2019-04-03T07:24:25.252Z,20.20
2019-04-03T07:26:54.271Z,20.67
2019-04-03T07:29:25.129Z,21.83
2019-04-03T07:31:55.207Z,21.20
2019-04-03T07:34:24.672Z,19.90
2019-04-03T07:36:53.611Z,21.43
2019-04-03T07:39:22.660Z,19.97
2019-04-03T07:41:53.933Z,21.13
2019-04-03T07:44:22.371Z,20.23
2019-04-03T07:46:51.508Z,21.87
2019-04-03T07:49:20.556Z,22.80
2019-04-03T07:51:49.832Z,21.73
2019-04-03T07:54:21.306Z,21.10
2019-04-03T07:56:49.483Z,21.27
2019-04-03T07:59:18.474Z,21.57
2019-04-03T08:01:47.556Z,22.30
2019-04-03T08:04:17.074Z,18.60
2019-04-03T08:06:46.210Z,19.30
2019-04-03T08:09:15.449Z,20.83
2019-04-03T08:11:44.452Z,19.00
2019-04-03T08:14:13.500Z,19.27
2019-04-03T08:16:43.268Z,19.20
2019-04-03T08:19:12.441Z,17.73
2019-04-03T08:21:41.573Z,17.60
2019-04-03T08:24:10.789Z,17.17
2019-04-03T08:26:40.294Z,18.37
2019-04-03T08:29:09.378Z,18.07
2019-04-03T08:31:38.772Z,17.13
2019-04-03T08:34:16.002Z,17.93
2019-04-03T08:36:39.785Z,17.23
2019-04-03T08:39:09.740Z,17.13
2019-04-03T08:41:38.889Z,16.43
2019-04-03T08:44:09.012Z,17.13
2019-04-03T08:46:38.687Z,15.93
2019-04-03T08:49:07.842Z,16.93
2019-04-03T08:51:36.862Z,16.03
2019-04-03T08:54:05.823Z,16.17
2019-04-03T08:56:34.807Z,15.50
2019-04-03T08:59:03.936Z,13.23
2019-04-03T09:01:34.427Z,15.60
2019-04-03T09:04:03.700Z,15.13
2019-04-03T09:06:32.734Z,15.00
2019-04-03T09:09:01.674Z,14.20
2019-04-03T09:11:30.646Z,15.90
2019-04-03T09:13:59.611Z,16.20
2019-04-03T09:16:28.787Z,14.40
2019-04-03T09:18:59.305Z,14.73
2019-04-03T09:21:28.420Z,14.30
2019-04-03T09:23:58.330Z,14.20
2019-04-03T09:26:27.671Z,15.07
2019-04-03T09:28:56.718Z,14.17
2019-04-03T09:31:25.710Z,14.00
2019-04-03T09:33:56.998Z,12.80
2019-04-03T09:36:25.904Z,13.67
2019-04-03T09:38:55.122Z,14.70
2019-04-03T09:41:24.251Z,16.10
2019-04-03T09:43:54.511Z,16.40
2019-04-03T09:46:23.653Z,16.67
2019-04-03T09:48:52.621Z,16.70
2019-04-03T09:51:22.778Z,16.57
2019-04-03T09:53:52.015Z,16.53
2019-04-03T09:56:20.973Z,16.33
2019-04-03T09:58:49.936Z,16.07
2019-04-03T10:01:19.112Z,16.73
2019-04-03T10:03:48.562Z,17.23
2019-04-03T10:06:17.634Z,16.00
2019-04-03T10:08:47.074Z,16.33
2019-04-03T10:11:19.525Z,16.53
2019-04-03T10:13:46.887Z,17.57
2019-04-03T10:16:16.812Z,20.23
2019-04-03T10:18:45.910Z,21.53
2019-04-03T10:21:14.860Z,22.60
2019-04-03T10:23:43.927Z,32.03
2019-04-03T10:26:13.150Z,26.73
2019-04-03T10:28:43.070Z,27.77
2019-04-03T10:31:12.748Z,25.90
2019-04-03T10:33:41.847Z,24.07
2019-04-03T10:36:12.003Z,23.00
2019-04-03T10:38:42.772Z,23.30
2019-04-03T10:41:12.064Z,22.53
2019-04-03T10:43:41.112Z,24.43
2019-04-03T10:46:10.212Z,23.30
2019-04-03T10:48:39.194Z,30.53
2019-04-03T10:51:09.252Z,24.33
2019-04-03T10:53:39.061Z,20.83
2019-04-03T10:56:08.873Z,21.67
2019-04-03T10:58:38.435Z,21.50
2019-04-03T11:01:08.934Z,25.37
2019-04-03T11:03:37.976Z,23.73
2019-04-03T11:06:07.242Z,17.43
2019-04-03T11:08:36.317Z,16.27
2019-04-03T11:11:05.295Z,15.50
2019-04-03T11:13:34.813Z,14.87
2019-04-03T11:16:03.983Z,16.07
2019-04-03T11:18:32.997Z,16.70
2019-04-03T11:21:02.182Z,14.70
2019-04-03T11:23:39.807Z,16.23
2019-04-03T11:26:02.148Z,13.97
2019-04-03T11:28:31.183Z,14.87
2019-04-03T11:31:01.462Z,13.43
2019-04-03T11:33:30.925Z,13.27
2019-04-03T11:35:59.965Z,13.23
2019-04-03T11:38:29.878Z,13.10
2019-04-03T11:41:11.364Z,13.07
2019-04-03T11:43:31.527Z,11.53
2019-04-03T11:46:00.494Z,11.67
2019-04-03T11:48:29.443Z,12.10
2019-04-03T11:50:58.542Z,12.47
2019-04-03T11:53:27.481Z,12.43
2019-04-03T11:55:56.526Z,13.43
2019-04-03T11:58:25.530Z,13.80
2019-04-03T12:00:54.783Z,12.43
2019-04-03T12:03:23.747Z,11.53
2019-04-03T12:05:52.933Z,11.67
2019-04-03T12:08:21.894Z,15.50
2019-04-03T12:10:50.999Z,17.87
2019-04-03T12:13:21.788Z,18.07
2019-04-03T12:15:53.535Z,24.13
2019-04-03T12:18:21.333Z,20.30
2019-04-03T12:20:50.547Z,14.57
2019-04-03T12:23:19.698Z,18.97
2019-04-03T12:25:48.632Z,20.60
2019-04-03T12:28:18.821Z,15.77
2019-04-03T12:30:48.115Z,18.30
2019-04-03T12:33:17.262Z,15.47
2019-04-03T12:35:47.802Z,15.03
2019-04-03T12:38:17.204Z,14.33
2019-04-03T12:40:46.197Z,16.47
2019-04-03T12:43:15.421Z,14.27
2019-04-03T12:45:44.676Z,17.23
2019-04-03T12:48:15.023Z,16.60
2019-04-03T12:50:44.638Z,18.47
2019-04-03T12:53:15.769Z,15.97
2019-04-03T12:55:44.461Z,12.90
2019-04-03T12:58:13.520Z,15.80
2019-04-03T13:00:43.527Z,19.93
2019-04-03T13:03:13.713Z,15.37
2019-04-03T13:05:42.814Z,10.87
2019-04-03T13:08:12.108Z,11.37
2019-04-03T13:10:43.170Z,11.57
2019-04-03T13:13:11.818Z,16.57
2019-04-03T13:15:41.390Z,7.90
2019-04-03T13:18:10.900Z,11.13
2019-04-03T13:20:39.919Z,11.53
2019-04-03T13:23:09.011Z,8.87
2019-04-03T13:25:38.005Z,6.27
2019-04-03T13:28:07.178Z,7.53
2019-04-03T13:30:36.732Z,7.40
2019-04-03T13:33:07.695Z,8.97
2019-04-03T13:35:36.624Z,8.70
2019-04-03T13:38:05.552Z,9.00
2019-04-03T13:40:36.456Z,11.20
2019-04-03T13:43:05.266Z,10.83
2019-04-03T13:45:34.561Z,11.97
2019-04-03T13:48:03.836Z,11.03
2019-04-03T13:50:32.894Z,9.30
2019-04-03T13:53:01.899Z,10.67
2019-04-03T13:55:33.758Z,11.43
2019-04-03T13:58:01.674Z,10.90
2019-04-03T14:00:32.854Z,10.10
2019-04-03T14:03:01.517Z,9.77
2019-04-03T14:05:32.926Z,8.80
2019-04-03T14:08:01.423Z,9.57
2019-04-03T14:10:30.744Z,10.57
2019-04-03T14:13:00.033Z,10.57
2019-04-03T14:15:29.147Z,10.83
2019-04-03T14:17:59.131Z,10.83
2019-04-03T14:20:28.704Z,10.47
2019-04-03T14:22:57.809Z,10.63
2019-04-03T14:25:31.382Z,9.77
2019-04-03T14:27:57.528Z,10.90
2019-04-03T14:30:26.891Z,10.70
2019-04-03T14:32:56.155Z,9.50
2019-04-03T14:35:45.186Z,11.37
2019-04-03T14:37:58.185Z,10.70
2019-04-03T14:40:26.913Z,10.40
2019-04-03T14:42:58.165Z,9.73
2019-04-03T14:45:26.707Z,9.83
2019-04-03T14:47:55.976Z,11.20
2019-04-03T14:50:25.682Z,10.30
2019-04-03T14:52:55.048Z,10.33
2019-04-03T14:55:24.359Z,10.10
2019-04-03T14:57:55.470Z,10.33
2019-04-03T15:00:28.327Z,10.00
2019-04-03T15:02:56.811Z,10.70
2019-04-03T15:05:26.625Z,9.53
2019-04-03T15:07:56.085Z,9.63
2019-04-03T15:10:25.431Z,10.33
2019-04-03T15:12:54.720Z,10.47
2019-04-03T15:15:24.788Z,10.57
2019-04-03T15:17:54.442Z,10.63
2019-04-03T15:20:23.530Z,10.67
2019-04-03T15:22:52.914Z,10.20
2019-04-03T15:25:22.006Z,9.97
2019-04-03T15:27:51.108Z,9.50
2019-04-03T15:30:20.712Z,9.93
2019-04-03T15:32:51.851Z,10.97
2019-04-03T15:35:20.771Z,11.43
2019-04-03T15:37:50.363Z,12.47
2019-04-03T15:40:19.753Z,11.37
2019-04-03T15:42:49.215Z,11.87
2019-04-03T15:45:19.042Z,12.80
2019-04-03T15:47:48.467Z,12.77
2019-04-03T15:50:18.498Z,12.57
2019-04-03T15:52:49.433Z,12.30
2019-04-03T15:55:18.679Z,12.07
2019-04-03T15:57:47.873Z,10.83
2019-04-03T16:00:18.247Z,10.83
2019-04-03T16:02:47.353Z,11.03
2019-04-03T16:05:16.980Z,11.70
2019-04-03T16:07:46.022Z,11.83
2019-04-03T16:10:15.338Z,11.60
2019-04-03T16:12:44.551Z,11.80
2019-04-03T16:15:15.310Z,11.53
2019-04-03T16:17:44.406Z,12.07
2019-04-03T16:20:16.324Z,11.87
2019-04-03T16:22:44.458Z,11.70
2019-04-03T16:25:16.137Z,11.40
2019-04-03T16:27:44.463Z,12.53
2019-04-03T16:30:16.152Z,12.43
2019-04-03T16:32:46.241Z,12.40
2019-04-03T16:35:15.422Z,13.03
2019-04-03T16:37:44.761Z,11.63
2019-04-03T16:40:14.901Z,11.93
2019-04-03T16:42:44.035Z,11.33
2019-04-03T16:45:13.888Z,11.80
2019-04-03T16:47:44.964Z,12.10
2019-04-03T16:50:14.059Z,11.37
2019-04-03T16:52:43.630Z,11.40
2019-04-03T16:55:13.817Z,11.50
2019-04-03T16:57:43.931Z,11.50
2019-04-03T17:00:13.486Z,11.20
2019-04-03T17:02:42.647Z,12.23
2019-04-03T17:05:12.935Z,10.60
2019-04-03T17:07:42.137Z,10.20
2019-04-03T17:10:11.334Z,10.50
2019-04-03T17:12:40.509Z,9.60
2019-04-03T17:15:09.945Z,9.60
2019-04-03T17:17:39.262Z,9.83
2019-04-03T17:20:09.252Z,9.77
2019-04-03T17:22:40.789Z,10.23
2019-04-03T17:25:09.858Z,10.27
2019-04-03T17:27:39.304Z,8.93
2019-04-03T17:30:12.333Z,9.80
2019-04-03T17:32:41.514Z,9.77
2019-04-03T17:35:13.395Z,9.53
2019-04-03T17:37:41.454Z,9.40
2019-04-03T17:40:11.463Z,8.77
2019-04-03T17:42:40.584Z,10.23
2019-04-03T17:45:09.692Z,9.63
2019-04-03T17:47:38.855Z,9.93
2019-04-03T17:50:08.343Z,9.43
2019-04-03T17:52:37.388Z,9.77
2019-04-03T17:55:10.062Z,9.53
2019-04-03T17:57:39.821Z,9.77
2019-04-03T18:00:14.838Z,9.70
2019-04-03T18:02:43.921Z,9.33
2019-04-03T18:05:13.298Z,10.67
2019-04-03T18:07:42.363Z,10.67
2019-04-03T18:10:13.255Z,10.33
2019-04-03T18:12:45.367Z,9.70
2019-04-03T18:15:13.381Z,10.77
2019-04-03T18:17:43.656Z,10.07
2019-04-03T18:20:14.506Z,10.13
2019-04-03T18:22:43.494Z,9.73
2019-04-03T18:25:12.714Z,9.43
2019-04-03T18:27:41.822Z,9.23
2019-04-03T18:30:12.693Z,9.90
2019-04-03T18:32:42.024Z,9.27
2019-04-03T18:35:11.341Z,9.87
2019-04-03T18:37:41.170Z,9.27
2019-04-03T18:40:14.135Z,9.00
2019-04-03T18:42:42.395Z,10.53
2019-04-03T18:45:24.074Z,9.87
2019-04-03T18:47:45.834Z,10.87
2019-04-03T18:50:13.347Z,12.30
2019-04-03T18:52:42.476Z,14.50
2019-04-03T18:55:13.838Z,15.30
2019-04-03T18:57:42.324Z,14.97
2019-04-03T19:00:11.774Z,14.67
2019-04-03T19:02:41.182Z,12.40
2019-04-03T19:05:13.978Z,12.50
2019-04-03T19:07:41.700Z,13.47
2019-04-03T19:10:11.815Z,11.70
2019-04-03T19:12:43.157Z,12.50
2019-04-03T19:15:12.418Z,11.90
2019-04-03T19:17:41.440Z,12.97
2019-04-03T19:20:11.537Z,13.63
2019-04-03T19:22:40.625Z,13.73
2019-04-03T19:25:09.878Z,12.73
2019-04-03T19:27:38.926Z,14.00
2019-04-03T19:30:08.797Z,16.17
2019-04-03T19:32:37.880Z,13.47
2019-04-03T19:35:10.134Z,13.20
2019-04-03T19:37:39.202Z,5.70
2019-04-03T19:40:09.700Z,6.87
2019-04-03T19:42:39.575Z,8.13
2019-04-03T19:45:09.119Z,7.87
2019-04-03T19:47:38.237Z,7.57
2019-04-03T19:50:07.920Z,8.60
2019-04-03T19:52:37.348Z,8.23
2019-04-03T19:55:07.955Z,8.03
2019-04-03T19:57:37.096Z,7.53
2019-04-03T20:00:07.165Z,8.13
2019-04-03T20:02:38.057Z,7.67
2019-04-03T20:05:07.564Z,9.47
2019-04-03T20:07:36.800Z,6.40
2019-04-03T20:10:08.868Z,6.63
2019-04-03T20:12:38.461Z,5.10
2019-04-03T20:15:08.534Z,4.47
2019-04-03T20:17:37.577Z,4.63
2019-04-03T20:20:07.750Z,5.63
2019-04-03T20:22:38.211Z,5.03
2019-04-03T20:25:08.206Z,5.80
2019-04-03T20:27:37.408Z,5.80
2019-04-03T20:30:07.944Z,6.50
2019-04-03T20:32:39.822Z,6.83
2019-04-03T20:35:08.159Z,6.00
2019-04-03T20:37:37.465Z,5.87
2019-04-03T20:40:07.296Z,6.20
2019-04-03T20:42:36.475Z,6.00
2019-04-03T20:45:08.061Z,6.43
2019-04-03T20:47:37.133Z,6.20
2019-04-03T20:50:07.722Z,6.50
2019-04-03T20:52:36.920Z,7.20
2019-04-03T20:55:07.231Z,6.77
2019-04-03T20:57:36.249Z,6.90
2019-04-03T21:00:11.158Z,6.90
2019-04-03T21:02:41.959Z,6.87
2019-04-03T21:05:11.300Z,6.83
2019-04-03T21:07:40.302Z,6.33
2019-04-03T21:10:09.889Z,6.37
2019-04-03T21:12:38.871Z,7.47
2019-04-03T21:15:09.214Z,7.07
2019-04-03T21:17:38.645Z,7.53
2019-04-03T21:20:07.768Z,7.20
2019-04-03T21:22:36.676Z,7.57
2019-04-03T21:25:06.909Z,7.37
2019-04-03T21:27:35.927Z,7.63
2019-04-03T21:30:09.650Z,7.20
2019-04-03T21:32:38.702Z,7.27
2019-04-03T21:35:07.685Z,7.57
2019-04-03T21:37:39.740Z,8.60
2019-04-03T21:40:07.543Z,8.47
2019-04-03T21:42:36.535Z,7.43
2019-04-03T21:45:07.573Z,8.50
2019-04-03T21:47:37.259Z,8.77
2019-04-03T21:50:06.899Z,8.93
2019-04-03T21:52:35.928Z,8.17
2019-04-03T21:55:07.288Z,8.53
2019-04-03T21:57:38.282Z,8.77
2019-04-03T22:00:13.001Z,8.33
2019-04-03T22:02:40.384Z,8.60
2019-04-03T22:05:09.612Z,8.67
2019-04-03T22:07:38.639Z,9.47
2019-04-03T22:10:09.005Z,9.53
2019-04-03T22:12:38.345Z,9.97
2019-04-03T22:15:07.632Z,9.97
2019-04-03T22:17:36.671Z,10.00
2019-04-03T22:20:06.647Z,8.37
2019-04-03T22:22:35.617Z,9.50
2019-04-03T22:25:05.064Z,9.10
2019-04-03T22:27:34.049Z,9.60
2019-04-03T22:30:03.405Z,9.80
2019-04-03T22:32:32.379Z,9.00
2019-04-03T22:35:01.624Z,8.17
2019-04-03T22:37:30.919Z,8.53
2019-04-03T22:39:59.872Z,9.23
2019-04-03T22:42:28.992Z,8.60
2019-04-03T22:44:57.927Z,9.00
2019-04-03T22:47:26.888Z,9.37
2019-04-03T22:49:55.895Z,9.73
2019-04-03T22:52:25.291Z,9.03
2019-04-03T22:54:54.235Z,9.30
2019-04-03T22:57:23.192Z,9.13
2019-04-03T22:59:54.485Z,9.57
2019-04-03T23:02:25.625Z,9.60
2019-04-03T23:04:54.624Z,9.37
2019-04-03T23:07:23.575Z,7.43
2019-04-03T23:09:52.601Z,8.70
2019-04-03T23:12:21.611Z,9.47
2019-04-03T23:14:50.585Z,9.50
2019-04-03T23:17:19.697Z,9.43
2019-04-03T23:19:49.855Z,8.57
2019-04-03T23:22:19.434Z,8.53
2019-04-03T23:24:48.409Z,9.83
2019-04-03T23:27:17.423Z,10.27
2019-04-03T23:29:46.414Z,11.47
2019-04-03T23:32:16.071Z,9.57
2019-04-03T23:34:45.169Z,9.23
2019-04-03T23:37:14.102Z,9.07
2019-04-03T23:39:43.400Z,9.37
2019-04-03T23:42:12.355Z,9.50
2019-04-03T23:44:42.110Z,8.93
2019-04-03T23:47:11.579Z,8.60
2019-04-03T23:49:41.221Z,8.43
2019-04-03T23:52:10.416Z,8.57
2019-04-03T23:54:39.727Z,7.97
2019-04-03T23:57:09.806Z,8.43
2019-04-03T23:59:39.291Z,7.20
